Hatsu Envoy — VSQL9 — position and weather

sailwx.info

Track history (hours):
 
Tides and Currents Weather Stations Pressure Air Temp Water Temp Dewpoint Dewpoint Depression Visibility Wind Speed Wind Dir Waves Ship Positions

Hatsu Envoy

Last reported at 2015-Jul-01 01:33 UTC. Time now 2015-Jul-01 06:35 UTC.
Position N 22°51' E 120°01'.

Type: Ship (hazmat cat D). MMSI: 235414000.

Date/timePositionNaut miles runAvg speedWind from/ knotsBaromVisibWave heightAir tempDewpointWater temp
2015-Jul-01 01:33N 22°51' E 120°01'1312.8
2015-Jul-01 00:33N 22°40' E 120°08'1111.3
2015-Jun-30 23:33N 22°33' E 120°18'1 0.8
2015-Jun-30 22:20N 22°33' E 120°19'0 0.0
2015-Jun-30 21:32N 22°33' E 120°19'0 0.0
2015-Jun-30 20:32N 22°33' E 120°19'0 0.0
2015-Jun-30 19:32N 22°33' E 120°19'0 0.0
2015-Jun-30 18:26N 22°33' E 120°19'0 0.0
2015-Jun-30 16:32N 22°33' E 120°19'0 0.0
2015-Jun-30 15:29N 22°33' E 120°19'0 0.0
2015-Jun-30 13:29N 22°33' E 120°19'0 0.0
2015-Jun-30 12:29N 22°33' E 120°19'0 0.0
2015-Jun-30 11:29N 22°33' E 120°19'0 0.0
2015-Jun-30 10:23N 22°33' E 120°19'0 0.0
2015-Jun-30 04:33N 22°33' E 120°19'5 5.5
2015-Jun-30 03:33N 22°32' E 120°13'1211.6
2015-Jun-30 02:33N 22°31' E 120°01'31810.6
2015-Jun-28 20:33N 22°34' E 114°16'0 0.0
2015-Jun-28 18:15N 22°34' E 114°16'0 0.0
2015-Jun-28 17:21N 22°34' E 114°16'17 1.9
2015-Jun-28 08:33N 22°23' E 114°30'1413.5
2015-Jun-28 07:30N 22°10' E 114°25'1413.6
2015-Jun-28 06:29N 22°12' E 114°10'8 8.8
2015-Jun-28 05:33N 22°20' E 114°07'0 0.2
2015-Jun-28 04:32N 22°20' E 114°08'0 0.1
2015-Jun-28 03:26N 22°20' E 114°08'0 0.0
2015-Jun-28 02:26N 22°20' E 114°08'0 0.0
2015-Jun-28 01:26N 22°20' E 114°08'0 0.1
2015-Jun-28 00:32N 22°20' E 114°08'0 0.1
2015-Jun-27 23:32N 22°20' E 114°08'0 0.0
2015-Jun-27 22:32N 22°20' E 114°08'0 0.0
2015-Jun-27 21:29N 22°20' E 114°08'0 0.1
2015-Jun-27 20:32N 22°20' E 114°08'0 0.1
2015-Jun-27 19:32N 22°20' E 114°08'0 0.0
2015-Jun-27 18:32N 22°20' E 114°08'2 1.8
2015-Jun-27 17:34N 22°19' E 114°06'7 7.0
2015-Jun-27 16:31N 22°13' E 114°10'8 7.5
2015-Jun-27 15:27N 22°08' E 114°17'1314.7
2015-Jun-27 14:33N 22°10' E 114°32'16416.4
2015-Jun-27 04:32N 22°57' E 117°22'51016.4
2015-Jun-25 21:25N 29°43' E 123°07'2216.9
2015-Jun-25 20:06N 30°05' E 123°12'1117.2
2015-Jun-25 19:26N 30°16' E 123°14'3217.3
2015-Jun-25 17:33N 30°48' E 123°20'  
2015-Jun-21 10:33N 33°56' E 134°54'1413.8
2015-Jun-21 09:33N 34°09' E 134°56'1616.1
2015-Jun-21 08:32N 34°24' E 135°04'1818.5
2015-Jun-21 07:33N 34°37' E 135°20'4 3.9
2015-Jun-21 06:33N 34°39' E 135°24'0 0.0
2015-Jun-21 05:27N 34°39' E 135°24'0 0.0
2015-Jun-21 04:33N 34°39' E 135°24'0 0.0
2015-Jun-21 03:27N 34°39' E 135°24'0 0.0
2015-Jun-21 02:33N 34°39' E 135°24'0 0.0
2015-Jun-21 01:33N 34°39' E 135°24'  
Track history (hours):
 
Tides and Currents Weather Stations Pressure Air Temp Water Temp Dewpoint Dewpoint Depression Visibility Wind Speed Wind Dir Waves Ship Positions

Hatsu Envoy

Last reported at 2015-Jul-01 01:33 UTC. Time now 2015-Jul-01 06:35 UTC.
Position N 22°51' E 120°01'.

Type: Ship (hazmat cat D). MMSI: 235414000.

Date/timePositionNaut miles runAvg speedWind from/ knotsBaromVisibWave heightAir tempDewpointWater temp
2015-Jul-01 01:33N 22°51' E 120°01'1312.8
2015-Jul-01 00:33N 22°40' E 120°08'1111.3
2015-Jun-30 23:33N 22°33' E 120°18'1 0.8
2015-Jun-30 22:20N 22°33' E 120°19'0 0.0
2015-Jun-30 21:32N 22°33' E 120°19'0 0.0
2015-Jun-30 20:32N 22°33' E 120°19'0 0.0
2015-Jun-30 19:32N 22°33' E 120°19'0 0.0
2015-Jun-30 18:26N 22°33' E 120°19'0 0.0
2015-Jun-30 16:32N 22°33' E 120°19'0 0.0
2015-Jun-30 15:29N 22°33' E 120°19'0 0.0
2015-Jun-30 13:29N 22°33' E 120°19'0 0.0
2015-Jun-30 12:29N 22°33' E 120°19'0 0.0
2015-Jun-30 11:29N 22°33' E 120°19'0 0.0
2015-Jun-30 10:23N 22°33' E 120°19'0 0.0
2015-Jun-30 04:33N 22°33' E 120°19'5 5.5
2015-Jun-30 03:33N 22°32' E 120°13'1211.6
2015-Jun-30 02:33N 22°31' E 120°01'31810.6
2015-Jun-28 20:33N 22°34' E 114°16'0 0.0
2015-Jun-28 18:15N 22°34' E 114°16'0 0.0
2015-Jun-28 17:21N 22°34' E 114°16'17 1.9
2015-Jun-28 08:33N 22°23' E 114°30'1413.5
2015-Jun-28 07:30N 22°10' E 114°25'1413.6
2015-Jun-28 06:29N 22°12' E 114°10'8 8.8
2015-Jun-28 05:33N 22°20' E 114°07'0 0.2
2015-Jun-28 04:32N 22°20' E 114°08'0 0.1
2015-Jun-28 03:26N 22°20' E 114°08'0 0.0
2015-Jun-28 02:26N 22°20' E 114°08'0 0.0
2015-Jun-28 01:26N 22°20' E 114°08'0 0.1
2015-Jun-28 00:32N 22°20' E 114°08'0 0.1
2015-Jun-27 23:32N 22°20' E 114°08'0 0.0
2015-Jun-27 22:32N 22°20' E 114°08'0 0.0
2015-Jun-27 21:29N 22°20' E 114°08'0 0.1
2015-Jun-27 20:32N 22°20' E 114°08'0 0.1
2015-Jun-27 19:32N 22°20' E 114°08'0 0.0
2015-Jun-27 18:32N 22°20' E 114°08'2 1.8
2015-Jun-27 17:34N 22°19' E 114°06'7 7.0
2015-Jun-27 16:31N 22°13' E 114°10'8 7.5
2015-Jun-27 15:27N 22°08' E 114°17'1314.7
2015-Jun-27 14:33N 22°10' E 114°32'16416.4
2015-Jun-27 04:32N 22°57' E 117°22'51016.4
2015-Jun-25 21:25N 29°43' E 123°07'2216.9
2015-Jun-25 20:06N 30°05' E 123°12'1117.2
2015-Jun-25 19:26N 30°16' E 123°14'3217.3
2015-Jun-25 17:33N 30°48' E 123°20'  
2015-Jun-21 10:33N 33°56' E 134°54'1413.8
2015-Jun-21 09:33N 34°09' E 134°56'1616.1
2015-Jun-21 08:32N 34°24' E 135°04'1818.5
2015-Jun-21 07:33N 34°37' E 135°20'4 3.9
2015-Jun-21 06:33N 34°39' E 135°24'0 0.0
2015-Jun-21 05:27N 34°39' E 135°24'0 0.0
2015-Jun-21 04:33N 34°39' E 135°24'0 0.0
2015-Jun-21 03:27N 34°39' E 135°24'0 0.0
2015-Jun-21 02:33N 34°39' E 135°24'0 0.0
2015-Jun-21 01:33N 34°39' E 135°24'  

Dump ship's entire track history